sensor_id;sensor_type;location;lat;lon;timestamp;temperature;humidity
14620;DHT22;32125;48.518;9.050;2023-07-13T00:04:04;21.00;99.90
14620;DHT22;32125;48.518;9.050;2023-07-13T00:06:29;21.00;99.90
14620;DHT22;32125;48.518;9.050;2023-07-13T00:08:59;21.00;99.90
14620;DHT22;32125;48.518;9.050;2023-07-13T00:11:28;21.00;99.90
14620;DHT22;32125;48.518;9.050;2023-07-13T00:13:53;21.00;99.90
14620;DHT22;32125;48.518;9.050;2023-07-13T00:16:19;21.00;99.90
14620;DHT22;32125;48.518;9.050;2023-07-13T00:18:48;21.00;99.90
14620;DHT22;32125;48.518;9.050;2023-07-13T00:21:14;20.90;99.90
14620;DHT22;32125;48.518;9.050;2023-07-13T00:23:41;20.90;99.90
14620;DHT22;32125;48.518;9.050;2023-07-13T00:26:08;20.80;99.90
14620;DHT22;32125;48.518;9.050;2023-07-13T00:28:35;20.80;99.90
14620;DHT22;32125;48.518;9.050;2023-07-13T00:31:01;20.80;99.90
14620;DHT22;32125;48.518;9.050;2023-07-13T00:33:30;20.80;99.90
14620;DHT22;32125;48.518;9.050;2023-07-13T00:35:56;20.80;99.90
14620;DHT22;32125;48.518;9.050;2023-07-13T00:40:51;20.80;99.90
14620;DHT22;32125;48.518;9.050;2023-07-13T00:43:19;20.70;99.90
14620;DHT22;32125;48.518;9.050;2023-07-13T00:48:20;20.80;99.90
14620;DHT22;32125;48.518;9.050;2023-07-13T00:50:48;20.70;99.90
14620;DHT22;32125;48.518;9.050;2023-07-13T00:53:19;20.70;99.90
14620;DHT22;32125;48.518;9.050;2023-07-13T00:55:46;20.70;99.90
14620;DHT22;32125;48.518;9.050;2023-07-13T01:03:05;20.70;99.90
14620;DHT22;32125;48.518;9.050;2023-07-13T01:05:33;20.70;99.90
14620;DHT22;32125;48.518;9.050;2023-07-13T01:08:01;20.60;99.90
14620;DHT22;32125;48.518;9.050;2023-07-13T01:10:27;20.60;99.90
14620;DHT22;32125;48.518;9.050;2023-07-13T01:12:53;20.60;99.90
14620;DHT22;32125;48.518;9.050;2023-07-13T01:15:37;20.60;99.90
14620;DHT22;32125;48.518;9.050;2023-07-13T01:18:05;20.50;99.90
14620;DHT22;32125;48.518;9.050;2023-07-13T01:23:07;20.50;99.90
14620;DHT22;32125;48.518;9.050;2023-07-13T01:25:35;20.40;99.90
14620;DHT22;32125;48.518;9.050;2023-07-13T01:28:03;20.40;99.90
14620;DHT22;32125;48.518;9.050;2023-07-13T01:40:20;20.30;99.90
14620;DHT22;32125;48.518;9.050;2023-07-13T01:42:46;20.30;99.90
14620;DHT22;32125;48.518;9.050;2023-07-13T01:52:34;20.10;99.90
14620;DHT22;32125;48.518;9.050;2023-07-13T01:55:00;20.00;99.90
14620;DHT22;32125;48.518;9.050;2023-07-13T01:57:25;20.00;99.90
14620;DHT22;32125;48.518;9.050;2023-07-13T01:59:53;20.00;99.90
14620;DHT22;32125;48.518;9.050;2023-07-13T02:02:19;19.90;99.90
14620;DHT22;32125;48.518;9.050;2023-07-13T02:12:07;19.70;99.90
14620;DHT22;32125;48.518;9.050;2023-07-13T02:14:36;19.70;99.90
14620;DHT22;32125;48.518;9.050;2023-07-13T02:17:03;19.70;99.90
14620;DHT22;32125;48.518;9.050;2023-07-13T02:19:32;19.60;99.90
14620;DHT22;32125;48.518;9.050;2023-07-13T02:21:57;19.50;99.90
14620;DHT22;32125;48.518;9.050;2023-07-13T02:24:23;19.50;99.90
14620;DHT22;32125;48.518;9.050;2023-07-13T02:26:49;19.50;99.90
14620;DHT22;32125;48.518;9.050;2023-07-13T02:29:17;19.40;99.90
14620;DHT22;32125;48.518;9.050;2023-07-13T02:31:43;19.40;99.90
14620;DHT22;32125;48.518;9.050;2023-07-13T02:36:37;19.30;99.90
14620;DHT22;32125;48.518;9.050;2023-07-13T02:39:04;19.30;99.90
14620;DHT22;32125;48.518;9.050;2023-07-13T02:41:32;19.20;99.90
14620;DHT22;32125;48.518;9.050;2023-07-13T02:44:00;19.20;99.90
14620;DHT22;32125;48.518;9.050;2023-07-13T02:46:35;19.10;99.90
14620;DHT22;32125;48.518;9.050;2023-07-13T02:49:01;19.10;99.90
14620;DHT22;32125;48.518;9.050;2023-07-13T02:51:27;19.00;99.90
14620;DHT22;32125;48.518;9.050;2023-07-13T02:53:55;19.00;99.90
14620;DHT22;32125;48.518;9.050;2023-07-13T02:56:25;18.90;99.90
14620;DHT22;32125;48.518;9.050;2023-07-13T02:58:51;18.90;99.90
14620;DHT22;32125;48.518;9.050;2023-07-13T03:01:17;18.80;99.90
14620;DHT22;32125;48.518;9.050;2023-07-13T03:03:46;18.80;99.90
14620;DHT22;32125;48.518;9.050;2023-07-13T03:06:13;18.80;99.90
14620;DHT22;32125;48.518;9.050;2023-07-13T03:08:41;18.70;99.90
14620;DHT22;32125;48.518;9.050;2023-07-13T03:11:12;18.70;99.90
14620;DHT22;32125;48.518;9.050;2023-07-13T03:13:42;18.70;99.90
14620;DHT22;32125;48.518;9.050;2023-07-13T03:16:08;18.60;99.90
14620;DHT22;32125;48.518;9.050;2023-07-13T03:21:01;18.50;99.90
14620;DHT22;32125;48.518;9.050;2023-07-13T03:23:27;18.50;99.90
14620;DHT22;32125;48.518;9.050;2023-07-13T03:26:11;18.50;99.90
14620;DHT22;32125;48.518;9.050;2023-07-13T03:28:36;18.40;99.90
14620;DHT22;32125;48.518;9.050;2023-07-13T03:31:12;18.40;99.90
14620;DHT22;32125;48.518;9.050;2023-07-13T03:33:38;18.40;99.90
14620;DHT22;32125;48.518;9.050;2023-07-13T03:36:05;18.30;99.90
14620;DHT22;32125;48.518;9.050;2023-07-13T03:38:33;18.30;99.90
14620;DHT22;32125;48.518;9.050;2023-07-13T03:40:59;18.30;99.90
14620;DHT22;32125;48.518;9.050;2023-07-13T03:48:24;18.20;99.90
14620;DHT22;32125;48.518;9.050;2023-07-13T03:50:50;18.20;99.90
14620;DHT22;32125;48.518;9.050;2023-07-13T03:58:28;18.20;99.90
14620;DHT22;32125;48.518;9.050;2023-07-13T04:03:23;18.10;99.90
14620;DHT22;32125;48.518;9.050;2023-07-13T04:10:43;18.10;99.90
14620;DHT22;32125;48.518;9.050;2023-07-13T04:13:08;18.10;99.90
14620;DHT22;32125;48.518;9.050;2023-07-13T04:15:34;18.10;99.90
14620;DHT22;32125;48.518;9.050;2023-07-13T04:40:06;18.20;99.90
14620;DHT22;32125;48.518;9.050;2023-07-13T04:42:32;18.10;99.90
14620;DHT22;32125;48.518;9.050;2023-07-13T04:44:59;18.10;99.90
14620;DHT22;32125;48.518;9.050;2023-07-13T04:54:45;18.20;99.90
14620;DHT22;32125;48.518;9.050;2023-07-13T05:02:06;18.10;99.90
14620;DHT22;32125;48.518;9.050;2023-07-13T05:04:34;18.20;99.90
14620;DHT22;32125;48.518;9.050;2023-07-13T05:12:01;18.10;99.90
14620;DHT22;32125;48.518;9.050;2023-07-13T05:14:29;18.10;99.90
14620;DHT22;32125;48.518;9.050;2023-07-13T05:24:17;18.00;99.90
14620;DHT22;32125;48.518;9.050;2023-07-13T05:26:44;18.10;99.90
14620;DHT22;32125;48.518;9.050;2023-07-13T05:36:28;18.30;99.90
14620;DHT22;32125;48.518;9.050;2023-07-13T05:38:53;18.40;99.90
14620;DHT22;32125;48.518;9.050;2023-07-13T05:41:19;18.50;99.90
14620;DHT22;32125;48.518;9.050;2023-07-13T05:48:37;18.40;99.90
14620;DHT22;32125;48.518;9.050;2023-07-13T05:51:02;18.40;99.90
14620;DHT22;32125;48.518;9.050;2023-07-13T05:58:26;18.40;99.90
14620;DHT22;32125;48.518;9.050;2023-07-13T06:01:05;18.40;99.90
14620;DHT22;32125;48.518;9.050;2023-07-13T06:10:51;18.70;99.90
14620;DHT22;32125;48.518;9.050;2023-07-13T06:18:17;18.70;99.90
14620;DHT22;32125;48.518;9.050;2023-07-13T06:30:32;19.10;99.90
14620;DHT22;32125;48.518;9.050;2023-07-13T06:35:23;19.30;99.90
14620;DHT22;32125;48.518;9.050;2023-07-13T06:37:51;19.60;99.90
14620;DHT22;32125;48.518;9.050;2023-07-13T06:45:09;20.40;99.90
14620;DHT22;32125;48.518;9.050;2023-07-13T06:47:35;20.60;99.90
14620;DHT22;32125;48.518;9.050;2023-07-13T06:50:01;21.00;99.90
14620;DHT22;32125;48.518;9.050;2023-07-13T07:14:31;23.40;99.90
14620;DHT22;32125;48.518;9.050;2023-07-13T07:19:29;23.80;99.90
14620;DHT22;32125;48.518;9.050;2023-07-13T07:24:22;24.00;99.90
14620;DHT22;32125;48.518;9.050;2023-07-13T07:41:29;24.80;99.90
14620;DHT22;32125;48.518;9.050;2023-07-13T07:51:15;25.50;97.90
14620;DHT22;32125;48.518;9.050;2023-07-13T07:56:09;25.70;97.10
14620;DHT22;32125;48.518;9.050;2023-07-13T08:05:57;26.10;92.80
14620;DHT22;32125;48.518;9.050;2023-07-13T08:08:23;26.20;90.00
14620;DHT22;32125;48.518;9.050;2023-07-13T08:10:51;26.30;89.10
14620;DHT22;32125;48.518;9.050;2023-07-13T08:18:11;26.60;91.40
14620;DHT22;32125;48.518;9.050;2023-07-13T08:28:06;27.00;82.60
14620;DHT22;32125;48.518;9.050;2023-07-13T08:32:58;27.20;82.60
14620;DHT22;32125;48.518;9.050;2023-07-13T08:37:52;27.40;82.70
14620;DHT22;32125;48.518;9.050;2023-07-13T08:42:54;27.70;78.60
14620;DHT22;32125;48.518;9.050;2023-07-13T08:45:30;27.60;75.60
14620;DHT22;32125;48.518;9.050;2023-07-13T09:01:45;27.40;78.60
14620;DHT22;32125;48.518;9.050;2023-07-13T09:04:11;27.40;75.40
14620;DHT22;32125;48.518;9.050;2023-07-13T09:12:17;27.50;77.80
14620;DHT22;32125;48.518;9.050;2023-07-13T09:14:53;27.60;75.30
14620;DHT22;32125;48.518;9.050;2023-07-13T09:17:45;27.70;75.00
14620;DHT22;32125;48.518;9.050;2023-07-13T09:20:29;27.60;74.30
14620;DHT22;32125;48.518;9.050;2023-07-13T09:22:56;27.50;73.20
14620;DHT22;32125;48.518;9.050;2023-07-13T09:35:27;27.20;76.50
14620;DHT22;32125;48.518;9.050;2023-07-13T09:37:58;27.20;74.20
14620;DHT22;32125;48.518;9.050;2023-07-13T09:50:42;27.90;74.20
14620;DHT22;32125;48.518;9.050;2023-07-13T09:53:19;28.10;71.60
14620;DHT22;32125;48.518;9.050;2023-07-13T09:58:18;28.20;69.80
14620;DHT22;32125;48.518;9.050;2023-07-13T10:03:29;28.00;69.40
14620;DHT22;32125;48.518;9.050;2023-07-13T10:08:29;28.10;70.90
14620;DHT22;32125;48.518;9.050;2023-07-13T10:11:10;28.10;71.00
14620;DHT22;32125;48.518;9.050;2023-07-13T10:13:40;28.00;67.60
14620;DHT22;32125;48.518;9.050;2023-07-13T10:19:01;27.90;66.00
14620;DHT22;32125;48.518;9.050;2023-07-13T10:21:33;27.90;66.30
14620;DHT22;32125;48.518;9.050;2023-07-13T10:24:20;27.90;70.00
14620;DHT22;32125;48.518;9.050;2023-07-13T10:27:32;28.10;66.00
14620;DHT22;32125;48.518;9.050;2023-07-13T10:29:39;28.10;67.70
14620;DHT22;32125;48.518;9.050;2023-07-13T10:46:58;28.90;66.50
14620;DHT22;32125;48.518;9.050;2023-07-13T10:49:24;28.90;63.30
14620;DHT22;32125;48.518;9.050;2023-07-13T10:51:52;29.00;64.90
14620;DHT22;32125;48.518;9.050;2023-07-13T10:56:45;29.10;66.40
14620;DHT22;32125;48.518;9.050;2023-07-13T11:07:20;29.50;62.80
14620;DHT22;32125;48.518;9.050;2023-07-13T11:09:51;29.70;64.20
14620;DHT22;32125;48.518;9.050;2023-07-13T11:27:52;29.20;60.20
14620;DHT22;32125;48.518;9.050;2023-07-13T11:35:35;28.50;61.90
14620;DHT22;32125;48.518;9.050;2023-07-13T11:38:13;28.40;62.30
14620;DHT22;32125;48.518;9.050;2023-07-13T11:43:15;28.50;60.90
14620;DHT22;32125;48.518;9.050;2023-07-13T11:45:42;28.50;60.90
14620;DHT22;32125;48.518;9.050;2023-07-13T11:50:58;28.90;62.20
14620;DHT22;32125;48.518;9.050;2023-07-13T11:53:28;29.10;57.60
14620;DHT22;32125;48.518;9.050;2023-07-13T11:58:24;29.10;59.50
14620;DHT22;32125;48.518;9.050;2023-07-13T12:00:52;29.20;59.60
14620;DHT22;32125;48.518;9.050;2023-07-13T12:03:21;29.20;58.90
14620;DHT22;32125;48.518;9.050;2023-07-13T12:05:57;29.40;57.40
14620;DHT22;32125;48.518;9.050;2023-07-13T12:13:23;29.60;60.30
14620;DHT22;32125;48.518;9.050;2023-07-13T12:18:29;29.80;58.40
14620;DHT22;32125;48.518;9.050;2023-07-13T12:20:58;29.80;58.40
14620;DHT22;32125;48.518;9.050;2023-07-13T12:28:22;29.70;57.40
14620;DHT22;32125;48.518;9.050;2023-07-13T12:35:47;29.60;56.90
14620;DHT22;32125;48.518;9.050;2023-07-13T12:38:13;29.50;55.60
14620;DHT22;32125;48.518;9.050;2023-07-13T12:43:14;29.20;59.20
14620;DHT22;32125;48.518;9.050;2023-07-13T12:46:03;29.00;57.10
14620;DHT22;32125;48.518;9.050;2023-07-13T12:51:01;28.80;58.40
14620;DHT22;32125;48.518;9.050;2023-07-13T12:53:30;28.70;59.30
14620;DHT22;32125;48.518;9.050;2023-07-13T12:56:02;28.60;58.60
14620;DHT22;32125;48.518;9.050;2023-07-13T13:00:58;28.40;57.10
14620;DHT22;32125;48.518;9.050;2023-07-13T13:03:50;28.40;60.10
14620;DHT22;32125;48.518;9.050;2023-07-13T13:08:58;28.30;59.50
14620;DHT22;32125;48.518;9.050;2023-07-13T13:11:26;28.20;56.50
14620;DHT22;32125;48.518;9.050;2023-07-13T13:16:29;28.10;57.20
14620;DHT22;32125;48.518;9.050;2023-07-13T13:19:00;28.10;56.50
14620;DHT22;32125;48.518;9.050;2023-07-13T13:21:29;28.10;57.80
14620;DHT22;32125;48.518;9.050;2023-07-13T13:23:58;28.00;57.30
14620;DHT22;32125;48.518;9.050;2023-07-13T13:36:19;27.60;60.00
14620;DHT22;32125;48.518;9.050;2023-07-13T13:48:39;27.50;58.40
14620;DHT22;32125;48.518;9.050;2023-07-13T13:51:20;27.60;57.50
14620;DHT22;32125;48.518;9.050;2023-07-13T13:53:49;27.50;58.60
14620;DHT22;32125;48.518;9.050;2023-07-13T13:56:15;27.50;57.70
14620;DHT22;32125;48.518;9.050;2023-07-13T13:58:45;27.40;59.80
14620;DHT22;32125;48.518;9.050;2023-07-13T14:01:16;27.20;58.70
14620;DHT22;32125;48.518;9.050;2023-07-13T14:03:43;27.10;57.90
14620;DHT22;32125;48.518;9.050;2023-07-13T14:06:16;27.10;58.20
14620;DHT22;32125;48.518;9.050;2023-07-13T14:08:42;27.00;57.80
14620;DHT22;32125;48.518;9.050;2023-07-13T14:11:12;27.10;58.60
14620;DHT22;32125;48.518;9.050;2023-07-13T14:13:44;27.20;58.70
14620;DHT22;32125;48.518;9.050;2023-07-13T14:18:48;27.40;59.10
14620;DHT22;32125;48.518;9.050;2023-07-13T14:21:19;27.40;56.60
14620;DHT22;32125;48.518;9.050;2023-07-13T14:26:14;27.20;59.90
14620;DHT22;32125;48.518;9.050;2023-07-13T14:28:50;27.30;59.90
14620;DHT22;32125;48.518;9.050;2023-07-13T14:31:19;27.40;58.90
14620;DHT22;32125;48.518;9.050;2023-07-13T14:33:45;27.40;58.90
14620;DHT22;32125;48.518;9.050;2023-07-13T14:36:25;27.30;57.20
14620;DHT22;32125;48.518;9.050;2023-07-13T14:38:52;27.20;58.40
14620;DHT22;32125;48.518;9.050;2023-07-13T14:41:18;27.00;57.00
14620;DHT22;32125;48.518;9.050;2023-07-13T14:46:39;26.70;58.90
14620;DHT22;32125;48.518;9.050;2023-07-13T14:49:37;26.60;58.70
14620;DHT22;32125;48.518;9.050;2023-07-13T14:52:21;26.60;57.30
14620;DHT22;32125;48.518;9.050;2023-07-13T14:54:47;26.60;59.70
14620;DHT22;32125;48.518;9.050;2023-07-13T14:57:15;26.60;59.10
14620;DHT22;32125;48.518;9.050;2023-07-13T14:59:42;26.60;61.50
14620;DHT22;32125;48.518;9.050;2023-07-13T15:02:35;26.60;61.20
14620;DHT22;32125;48.518;9.050;2023-07-13T15:05:13;26.60;60.30
14620;DHT22;32125;48.518;9.050;2023-07-13T15:07:39;26.60;58.80
14620;DHT22;32125;48.518;9.050;2023-07-13T15:10:18;26.60;59.10
14620;DHT22;32125;48.518;9.050;2023-07-13T15:12:44;26.60;59.60
14620;DHT22;32125;48.518;9.050;2023-07-13T15:15:09;26.70;61.60
14620;DHT22;32125;48.518;9.050;2023-07-13T15:17:41;26.70;62.00
14620;DHT22;32125;48.518;9.050;2023-07-13T15:20:19;26.80;63.60
14620;DHT22;32125;48.518;9.050;2023-07-13T15:25:24;26.80;62.30
14620;DHT22;32125;48.518;9.050;2023-07-13T15:27:50;26.90;63.50
14620;DHT22;32125;48.518;9.050;2023-07-13T15:30:16;27.00;65.60
14620;DHT22;32125;48.518;9.050;2023-07-13T15:32:43;27.00;63.90
14620;DHT22;32125;48.518;9.050;2023-07-13T15:35:21;27.00;62.10
14620;DHT22;32125;48.518;9.050;2023-07-13T15:37:48;27.00;62.50
14620;DHT22;32125;48.518;9.050;2023-07-13T15:40:16;26.90;63.20
14620;DHT22;32125;48.518;9.050;2023-07-13T15:47:51;26.90;67.10
14620;DHT22;32125;48.518;9.050;2023-07-13T15:50:22;26.80;65.20
14620;DHT22;32125;48.518;9.050;2023-07-13T15:52:51;26.80;66.20
14620;DHT22;32125;48.518;9.050;2023-07-13T15:55:20;26.80;64.80
14620;DHT22;32125;48.518;9.050;2023-07-13T15:57:50;26.90;66.70
14620;DHT22;32125;48.518;9.050;2023-07-13T16:00:20;26.80;65.60
14620;DHT22;32125;48.518;9.050;2023-07-13T16:10:21;26.50;66.40
14620;DHT22;32125;48.518;9.050;2023-07-13T16:35:34;26.20;67.00
14620;DHT22;32125;48.518;9.050;2023-07-13T16:45:31;26.20;66.00
14620;DHT22;32125;48.518;9.050;2023-07-13T16:48:00;26.00;66.00
14620;DHT22;32125;48.518;9.050;2023-07-13T16:50:31;25.90;66.90
14620;DHT22;32125;48.518;9.050;2023-07-13T16:57:58;25.80;70.40
14620;DHT22;32125;48.518;9.050;2023-07-13T17:00:30;25.70;68.10
14620;DHT22;32125;48.518;9.050;2023-07-13T17:03:03;25.70;71.30
14620;DHT22;32125;48.518;9.050;2023-07-13T17:13:09;25.40;71.80
14620;DHT22;32125;48.518;9.050;2023-07-13T17:15:36;25.40;75.50
14620;DHT22;32125;48.518;9.050;2023-07-13T17:18:02;25.40;73.30
14620;DHT22;32125;48.518;9.050;2023-07-13T17:23:12;25.20;73.80
14620;DHT22;32125;48.518;9.050;2023-07-13T17:25:44;25.10;70.40
14620;DHT22;32125;48.518;9.050;2023-07-13T17:30:39;25.20;73.30
14620;DHT22;32125;48.518;9.050;2023-07-13T17:35:35;25.10;77.30
14620;DHT22;32125;48.518;9.050;2023-07-13T17:38:03;25.10;76.30
14620;DHT22;32125;48.518;9.050;2023-07-13T17:42:55;25.10;77.20
14620;DHT22;32125;48.518;9.050;2023-07-13T17:45:29;25.10;77.90
14620;DHT22;32125;48.518;9.050;2023-07-13T17:47:56;25.10;76.80
14620;DHT22;32125;48.518;9.050;2023-07-13T17:55:34;25.00;72.80
14620;DHT22;32125;48.518;9.050;2023-07-13T17:58:02;24.90;77.80
14620;DHT22;32125;48.518;9.050;2023-07-13T18:03:08;24.80;78.70
14620;DHT22;32125;48.518;9.050;2023-07-13T18:05:38;24.80;77.40
14620;DHT22;32125;48.518;9.050;2023-07-13T18:08:28;24.80;79.00
14620;DHT22;32125;48.518;9.050;2023-07-13T18:10:58;24.70;79.40
14620;DHT22;32125;48.518;9.050;2023-07-13T18:13:28;24.70;80.00
14620;DHT22;32125;48.518;9.050;2023-07-13T18:15:58;24.60;80.10
14620;DHT22;32125;48.518;9.050;2023-07-13T18:18:25;24.50;78.40
14620;DHT22;32125;48.518;9.050;2023-07-13T18:25:46;24.40;81.20
14620;DHT22;32125;48.518;9.050;2023-07-13T18:28:13;24.30;81.10
14620;DHT22;32125;48.518;9.050;2023-07-13T18:30:40;24.20;80.70
14620;DHT22;32125;48.518;9.050;2023-07-13T18:33:28;24.20;80.10
14620;DHT22;32125;48.518;9.050;2023-07-13T18:35:55;24.10;79.90
14620;DHT22;32125;48.518;9.050;2023-07-13T18:38:23;24.10;80.80
14620;DHT22;32125;48.518;9.050;2023-07-13T18:40:53;24.00;80.20
14620;DHT22;32125;48.518;9.050;2023-07-13T18:43:23;24.00;81.30
14620;DHT22;32125;48.518;9.050;2023-07-13T18:45:54;23.80;81.40
14620;DHT22;32125;48.518;9.050;2023-07-13T18:48:22;23.80;82.00
14620;DHT22;32125;48.518;9.050;2023-07-13T18:50:49;23.80;82.50
14620;DHT22;32125;48.518;9.050;2023-07-13T18:53:18;23.70;81.50
14620;DHT22;32125;48.518;9.050;2023-07-13T18:55:45;23.60;80.90
14620;DHT22;32125;48.518;9.050;2023-07-13T18:58:12;23.60;81.70
14620;DHT22;32125;48.518;9.050;2023-07-13T19:00:42;23.60;81.60
14620;DHT22;32125;48.518;9.050;2023-07-13T19:03:20;23.40;81.50
14620;DHT22;32125;48.518;9.050;2023-07-13T19:08:23;23.40;81.50
14620;DHT22;32125;48.518;9.050;2023-07-13T19:10:51;23.30;81.90
14620;DHT22;32125;48.518;9.050;2023-07-13T19:13:27;23.20;82.30
14620;DHT22;32125;48.518;9.050;2023-07-13T19:15:54;23.10;82.50
14620;DHT22;32125;48.518;9.050;2023-07-13T19:18:21;23.00;82.70
14620;DHT22;32125;48.518;9.050;2023-07-13T19:20:49;23.00;83.60
14620;DHT22;32125;48.518;9.050;2023-07-13T19:23:30;23.00;83.20
14620;DHT22;32125;48.518;9.050;2023-07-13T19:28:42;22.80;85.00
14620;DHT22;32125;48.518;9.050;2023-07-13T19:36:13;22.50;85.90
14620;DHT22;32125;48.518;9.050;2023-07-13T19:38:42;22.50;85.90
14620;DHT22;32125;48.518;9.050;2023-07-13T19:41:17;22.40;85.70
14620;DHT22;32125;48.518;9.050;2023-07-13T19:43:44;22.40;85.70
14620;DHT22;32125;48.518;9.050;2023-07-13T19:46:31;22.30;85.70
14620;DHT22;32125;48.518;9.050;2023-07-13T19:48:57;22.30;86.10
14620;DHT22;32125;48.518;9.050;2023-07-13T19:51:23;22.20;85.80
14620;DHT22;32125;48.518;9.050;2023-07-13T19:53:52;22.10;85.80
14620;DHT22;32125;48.518;9.050;2023-07-13T19:56:18;22.00;86.50
14620;DHT22;32125;48.518;9.050;2023-07-13T19:58:47;22.00;86.30
14620;DHT22;32125;48.518;9.050;2023-07-13T20:03:42;21.90;87.30
14620;DHT22;32125;48.518;9.050;2023-07-13T20:11:07;21.80;88.70
14620;DHT22;32125;48.518;9.050;2023-07-13T20:18:32;21.70;88.20
14620;DHT22;32125;48.518;9.050;2023-07-13T20:23:31;21.60;90.00
14620;DHT22;32125;48.518;9.050;2023-07-13T20:25:59;21.50;90.10
14620;DHT22;32125;48.518;9.050;2023-07-13T20:28:26;21.50;90.50
14620;DHT22;32125;48.518;9.050;2023-07-13T20:33:23;21.40;91.50
14620;DHT22;32125;48.518;9.050;2023-07-13T20:35:53;21.30;91.40
14620;DHT22;32125;48.518;9.050;2023-07-13T20:38:23;21.30;91.70
14620;DHT22;32125;48.518;9.050;2023-07-13T20:43:19;21.10;92.40
14620;DHT22;32125;48.518;9.050;2023-07-13T20:45:45;21.10;92.80
14620;DHT22;32125;48.518;9.050;2023-07-13T20:53:10;21.00;93.50
14620;DHT22;32125;48.518;9.050;2023-07-13T20:58:03;20.90;94.10
14620;DHT22;32125;48.518;9.050;2023-07-13T21:00:29;20.80;94.10
14620;DHT22;32125;48.518;9.050;2023-07-13T21:08:01;20.70;94.70
14620;DHT22;32125;48.518;9.050;2023-07-13T21:10:30;20.60;94.70
14620;DHT22;32125;48.518;9.050;2023-07-13T21:17:55;20.50;95.50
14620;DHT22;32125;48.518;9.050;2023-07-13T21:27:55;20.20;96.30
14620;DHT22;32125;48.518;9.050;2023-07-13T21:30:41;20.20;96.40
14620;DHT22;32125;48.518;9.050;2023-07-13T21:33:12;20.10;96.60
14620;DHT22;32125;48.518;9.050;2023-07-13T21:38:25;20.00;96.80
14620;DHT22;32125;48.518;9.050;2023-07-13T21:40:54;20.00;97.20
14620;DHT22;32125;48.518;9.050;2023-07-13T21:43:21;19.90;97.70
14620;DHT22;32125;48.518;9.050;2023-07-13T21:48:13;19.80;98.00
14620;DHT22;32125;48.518;9.050;2023-07-13T21:50:43;19.70;98.30
14620;DHT22;32125;48.518;9.050;2023-07-13T21:53:21;19.70;98.60
14620;DHT22;32125;48.518;9.050;2023-07-13T21:55:48;19.60;99.00
14620;DHT22;32125;48.518;9.050;2023-07-13T21:58:32;19.60;99.40
14620;DHT22;32125;48.518;9.050;2023-07-13T22:00:58;19.50;99.80
14620;DHT22;32125;48.518;9.050;2023-07-13T22:05:55;19.40;99.90
14620;DHT22;32125;48.518;9.050;2023-07-13T22:08:25;19.40;99.90
14620;DHT22;32125;48.518;9.050;2023-07-13T22:10:51;19.30;99.90
14620;DHT22;32125;48.518;9.050;2023-07-13T22:13:18;19.30;99.90
14620;DHT22;32125;48.518;9.050;2023-07-13T22:18:16;19.20;99.90
14620;DHT22;32125;48.518;9.050;2023-07-13T22:20:43;19.20;99.90
14620;DHT22;32125;48.518;9.050;2023-07-13T22:23:26;19.10;99.90
14620;DHT22;32125;48.518;9.050;2023-07-13T22:25:55;19.10;99.90
14620;DHT22;32125;48.518;9.050;2023-07-13T22:28:23;19.10;99.90
14620;DHT22;32125;48.518;9.050;2023-07-13T22:30:51;19.00;99.90
14620;DHT22;32125;48.518;9.050;2023-07-13T22:33:22;19.00;99.90
14620;DHT22;32125;48.518;9.050;2023-07-13T22:35:48;19.00;99.90
14620;DHT22;32125;48.518;9.050;2023-07-13T22:38:22;18.90;99.90
14620;DHT22;32125;48.518;9.050;2023-07-13T22:40:51;18.80;99.90
14620;DHT22;32125;48.518;9.050;2023-07-13T22:45:52;18.80;99.90
14620;DHT22;32125;48.518;9.050;2023-07-13T22:48:23;18.70;99.90
14620;DHT22;32125;48.518;9.050;2023-07-13T22:50:49;18.70;99.90
14620;DHT22;32125;48.518;9.050;2023-07-13T22:53:19;18.60;99.90
14620;DHT22;32125;48.518;9.050;2023-07-13T22:55:48;21.80;99.90
14620;DHT22;32125;48.518;9.050;2023-07-13T22:58:13;18.60;99.90
14620;DHT22;32125;48.518;9.050;2023-07-13T23:00:39;18.50;99.90
14620;DHT22;32125;48.518;9.050;2023-07-13T23:03:13;18.50;99.90
14620;DHT22;32125;48.518;9.050;2023-07-13T23:05:44;18.40;99.90
14620;DHT22;32125;48.518;9.050;2023-07-13T23:08:15;18.40;99.90
14620;DHT22;32125;48.518;9.050;2023-07-13T23:10:42;18.40;99.90
14620;DHT22;32125;48.518;9.050;2023-07-13T23:13:12;18.30;99.90
14620;DHT22;32125;48.518;9.050;2023-07-13T23:15:40;18.40;99.90
14620;DHT22;32125;48.518;9.050;2023-07-13T23:18:10;18.30;99.90
14620;DHT22;32125;48.518;9.050;2023-07-13T23:20:38;18.20;99.90
14620;DHT22;32125;48.518;9.050;2023-07-13T23:25:31;18.20;99.90
14620;DHT22;32125;48.518;9.050;2023-07-13T23:28:00;18.10;99.90
14620;DHT22;32125;48.518;9.050;2023-07-13T23:30:28;18.10;99.90
14620;DHT22;32125;48.518;9.050;2023-07-13T23:35:44;18.00;99.90
14620;DHT22;32125;48.518;9.050;2023-07-13T23:38:10;17.90;99.90
14620;DHT22;32125;48.518;9.050;2023-07-13T23:40:38;17.90;99.90
14620;DHT22;32125;48.518;9.050;2023-07-13T23:43:08;17.80;99.90
14620;DHT22;32125;48.518;9.050;2023-07-13T23:48:08;17.80;99.90
14620;DHT22;32125;48.518;9.050;2023-07-13T23:50:35;17.70;99.90
14620;DHT22;32125;48.518;9.050;2023-07-13T23:53:01;17.70;99.90
14620;DHT22;32125;48.518;9.050;2023-07-13T23:55:30;17.60;99.90
14620;DHT22;32125;48.518;9.050;2023-07-13T23:57:58;17.60;99.90
